sensor_id;sensor_type;location;lat;lon;timestamp;P1;durP1;ratioP1;P2;durP2;ratioP2
21899;SDS011;11114;50.658;12.704;2023-05-21T00:01:09;26.58;;;23.80;;
21899;SDS011;11114;50.658;12.704;2023-05-21T00:04:01;27.88;;;24.90;;
21899;SDS011;11114;50.658;12.704;2023-05-21T00:06:48;30.05;;;24.65;;
21899;SDS011;11114;50.658;12.704;2023-05-21T00:09:37;26.50;;;23.70;;
21899;SDS011;11114;50.658;12.704;2023-05-21T00:12:23;27.67;;;24.85;;
21899;SDS011;11114;50.658;12.704;2023-05-21T00:15:09;28.20;;;25.30;;
21899;SDS011;11114;50.658;12.704;2023-05-21T00:17:56;28.42;;;25.52;;
21899;SDS011;11114;50.658;12.704;2023-05-21T00:20:42;27.30;;;24.50;;
21899;SDS011;11114;50.658;12.704;2023-05-21T00:23:30;27.25;;;24.52;;
21899;SDS011;11114;50.658;12.704;2023-05-21T00:26:17;27.30;;;24.60;;
21899;SDS011;11114;50.658;12.704;2023-05-21T00:29:04;27.55;;;24.73;;
21899;SDS011;11114;50.658;12.704;2023-05-21T00:31:52;27.83;;;24.83;;
21899;SDS011;11114;50.658;12.704;2023-05-21T00:34:39;28.45;;;24.77;;
21899;SDS011;11114;50.658;12.704;2023-05-21T00:37:25;28.38;;;25.27;;
21899;SDS011;11114;50.658;12.704;2023-05-21T00:40:14;27.15;;;24.48;;
21899;SDS011;11114;50.658;12.704;2023-05-21T00:43:01;28.25;;;25.35;;
21899;SDS011;11114;50.658;12.704;2023-05-21T00:45:48;28.30;;;25.25;;
21899;SDS011;11114;50.658;12.704;2023-05-21T00:48:34;29.45;;;26.40;;
21899;SDS011;11114;50.658;12.704;2023-05-21T00:51:27;29.88;;;26.65;;
21899;SDS011;11114;50.658;12.704;2023-05-21T00:54:17;30.67;;;27.30;;
21899;SDS011;11114;50.658;12.704;2023-05-21T00:57:04;29.85;;;26.67;;
21899;SDS011;11114;50.658;12.704;2023-05-21T00:59:51;28.75;;;25.85;;
21899;SDS011;11114;50.658;12.704;2023-05-21T01:02:38;28.73;;;25.67;;
21899;SDS011;11114;50.658;12.704;2023-05-21T01:05:24;27.90;;;24.90;;
21899;SDS011;11114;50.658;12.704;2023-05-21T01:08:11;28.58;;;25.67;;
21899;SDS011;11114;50.658;12.704;2023-05-21T01:10:58;27.92;;;25.05;;
21899;SDS011;11114;50.658;12.704;2023-05-21T01:13:45;29.02;;;25.95;;
21899;SDS011;11114;50.658;12.704;2023-05-21T01:16:32;28.83;;;25.25;;
21899;SDS011;11114;50.658;12.704;2023-05-21T01:19:19;28.05;;;25.25;;
21899;SDS011;11114;50.658;12.704;2023-05-21T01:22:07;27.75;;;24.88;;
21899;SDS011;11114;50.658;12.704;2023-05-21T01:24:58;31.05;;;25.08;;
21899;SDS011;11114;50.658;12.704;2023-05-21T01:27:48;26.85;;;24.25;;
21899;SDS011;11114;50.658;12.704;2023-05-21T01:30:34;25.63;;;23.13;;
21899;SDS011;11114;50.658;12.704;2023-05-21T01:33:28;26.55;;;23.75;;
21899;SDS011;11114;50.658;12.704;2023-05-21T01:36:28;27.05;;;24.25;;
21899;SDS011;11114;50.658;12.704;2023-05-21T01:39:22;25.75;;;23.40;;
21899;SDS011;11114;50.658;12.704;2023-05-21T01:42:13;25.95;;;23.33;;
21899;SDS011;11114;50.658;12.704;2023-05-21T01:45:01;24.70;;;22.38;;
21899;SDS011;11114;50.658;12.704;2023-05-21T01:47:50;26.13;;;23.50;;
21899;SDS011;11114;50.658;12.704;2023-05-21T01:50:39;26.45;;;23.75;;
21899;SDS011;11114;50.658;12.704;2023-05-21T01:53:26;25.90;;;23.33;;
21899;SDS011;11114;50.658;12.704;2023-05-21T01:56:13;26.65;;;24.05;;
21899;SDS011;11114;50.658;12.704;2023-05-21T01:59:02;26.73;;;24.10;;
21899;SDS011;11114;50.658;12.704;2023-05-21T02:01:48;26.42;;;23.77;;
21899;SDS011;11114;50.658;12.704;2023-05-21T02:04:35;26.05;;;23.45;;
21899;SDS011;11114;50.658;12.704;2023-05-21T02:07:22;26.75;;;24.05;;
21899;SDS011;11114;50.658;12.704;2023-05-21T02:10:10;26.25;;;23.75;;
21899;SDS011;11114;50.658;12.704;2023-05-21T02:12:57;26.67;;;23.80;;
21899;SDS011;11114;50.658;12.704;2023-05-21T02:15:44;24.50;;;22.27;;
21899;SDS011;11114;50.658;12.704;2023-05-21T02:18:31;26.83;;;24.23;;
21899;SDS011;11114;50.658;12.704;2023-05-21T02:21:19;25.48;;;23.13;;
21899;SDS011;11114;50.658;12.704;2023-05-21T02:24:05;25.48;;;23.08;;
21899;SDS011;11114;50.658;12.704;2023-05-21T02:26:52;26.20;;;23.63;;
21899;SDS011;11114;50.658;12.704;2023-05-21T02:29:38;26.05;;;23.48;;
21899;SDS011;11114;50.658;12.704;2023-05-21T02:32:24;27.17;;;24.55;;
21899;SDS011;11114;50.658;12.704;2023-05-21T02:35:11;26.58;;;24.08;;
21899;SDS011;11114;50.658;12.704;2023-05-21T02:37:58;26.90;;;24.30;;
21899;SDS011;11114;50.658;12.704;2023-05-21T02:40:48;26.30;;;23.60;;
21899;SDS011;11114;50.658;12.704;2023-05-21T02:43:38;27.17;;;24.58;;
21899;SDS011;11114;50.658;12.704;2023-05-21T02:46:24;26.65;;;24.05;;
21899;SDS011;11114;50.658;12.704;2023-05-21T02:49:12;29.13;;;25.83;;
21899;SDS011;11114;50.658;12.704;2023-05-21T02:52:00;27.88;;;24.85;;
21899;SDS011;11114;50.658;12.704;2023-05-21T02:54:46;29.75;;;25.48;;
21899;SDS011;11114;50.658;12.704;2023-05-21T02:57:33;28.30;;;25.42;;
21899;SDS011;11114;50.658;12.704;2023-05-21T03:00:19;28.10;;;25.33;;
21899;SDS011;11114;50.658;12.704;2023-05-21T03:03:06;29.80;;;26.75;;
21899;SDS011;11114;50.658;12.704;2023-05-21T03:05:53;28.05;;;25.25;;
21899;SDS011;11114;50.658;12.704;2023-05-21T03:08:40;28.52;;;25.80;;
21899;SDS011;11114;50.658;12.704;2023-05-21T03:11:28;27.95;;;25.15;;
21899;SDS011;11114;50.658;12.704;2023-05-21T03:14:16;28.48;;;25.52;;
21899;SDS011;11114;50.658;12.704;2023-05-21T03:17:03;29.13;;;24.27;;
21899;SDS011;11114;50.658;12.704;2023-05-21T03:19:51;26.02;;;23.38;;
21899;SDS011;11114;50.658;12.704;2023-05-21T03:22:39;26.95;;;24.42;;
21899;SDS011;11114;50.658;12.704;2023-05-21T03:25:26;26.27;;;23.42;;
21899;SDS011;11114;50.658;12.704;2023-05-21T03:28:13;27.02;;;24.27;;
21899;SDS011;11114;50.658;12.704;2023-05-21T03:31:06;26.88;;;24.27;;
21899;SDS011;11114;50.658;12.704;2023-05-21T03:33:53;26.38;;;23.67;;
21899;SDS011;11114;50.658;12.704;2023-05-21T03:36:42;25.45;;;22.95;;
21899;SDS011;11114;50.658;12.704;2023-05-21T03:39:28;24.20;;;21.98;;
21899;SDS011;11114;50.658;12.704;2023-05-21T03:42:16;25.08;;;22.67;;
21899;SDS011;11114;50.658;12.704;2023-05-21T03:45:07;25.40;;;23.10;;
21899;SDS011;11114;50.658;12.704;2023-05-21T03:48:24;25.70;;;23.10;;
21899;SDS011;11114;50.658;12.704;2023-05-21T03:51:10;23.73;;;21.50;;
21899;SDS011;11114;50.658;12.704;2023-05-21T03:53:58;23.90;;;21.50;;
21899;SDS011;11114;50.658;12.704;2023-05-21T03:56:45;24.38;;;22.05;;
21899;SDS011;11114;50.658;12.704;2023-05-21T03:59:32;23.60;;;21.42;;
21899;SDS011;11114;50.658;12.704;2023-05-21T04:02:17;24.48;;;22.17;;
21899;SDS011;11114;50.658;12.704;2023-05-21T04:05:04;24.95;;;22.42;;
21899;SDS011;11114;50.658;12.704;2023-05-21T04:07:52;25.63;;;23.23;;
21899;SDS011;11114;50.658;12.704;2023-05-21T04:10:38;25.77;;;23.40;;
21899;SDS011;11114;50.658;12.704;2023-05-21T04:13:26;26.63;;;24.05;;
21899;SDS011;11114;50.658;12.704;2023-05-21T04:16:13;26.05;;;23.65;;
21899;SDS011;11114;50.658;12.704;2023-05-21T04:21:51;24.75;;;22.55;;
21899;SDS011;11114;50.658;12.704;2023-05-21T04:24:38;23.65;;;21.45;;
21899;SDS011;11114;50.658;12.704;2023-05-21T04:27:42;24.33;;;22.10;;
21899;SDS011;11114;50.658;12.704;2023-05-21T04:30:33;25.80;;;23.40;;
21899;SDS011;11114;50.658;12.704;2023-05-21T04:33:22;24.98;;;22.63;;
21899;SDS011;11114;50.658;12.704;2023-05-21T04:36:09;25.35;;;23.05;;
21899;SDS011;11114;50.658;12.704;2023-05-21T04:38:56;24.00;;;21.90;;
21899;SDS011;11114;50.658;12.704;2023-05-21T04:41:43;25.30;;;23.00;;
21899;SDS011;11114;50.658;12.704;2023-05-21T04:44:30;24.80;;;22.50;;
21899;SDS011;11114;50.658;12.704;2023-05-21T04:47:17;23.95;;;21.85;;
21899;SDS011;11114;50.658;12.704;2023-05-21T04:50:05;24.45;;;22.27;;
21899;SDS011;11114;50.658;12.704;2023-05-21T04:52:52;24.52;;;22.33;;
21899;SDS011;11114;50.658;12.704;2023-05-21T04:55:39;23.27;;;21.27;;
21899;SDS011;11114;50.658;12.704;2023-05-21T04:58:26;23.10;;;21.05;;
21899;SDS011;11114;50.658;12.704;2023-05-21T05:01:14;24.13;;;21.92;;
21899;SDS011;11114;50.658;12.704;2023-05-21T05:04:01;22.98;;;20.88;;
21899;SDS011;11114;50.658;12.704;2023-05-21T05:06:48;23.08;;;21.05;;
21899;SDS011;11114;50.658;12.704;2023-05-21T05:09:35;22.17;;;20.17;;
21899;SDS011;11114;50.658;12.704;2023-05-21T05:12:21;24.58;;;22.08;;
21899;SDS011;11114;50.658;12.704;2023-05-21T05:15:09;22.98;;;20.98;;
21899;SDS011;11114;50.658;12.704;2023-05-21T05:17:56;22.58;;;20.65;;
21899;SDS011;11114;50.658;12.704;2023-05-21T05:20:42;23.65;;;21.35;;
21899;SDS011;11114;50.658;12.704;2023-05-21T05:23:29;24.50;;;22.30;;
21899;SDS011;11114;50.658;12.704;2023-05-21T05:26:15;23.65;;;21.65;;
21899;SDS011;11114;50.658;12.704;2023-05-21T05:29:02;22.95;;;20.85;;
21899;SDS011;11114;50.658;12.704;2023-05-21T05:31:48;24.60;;;22.27;;
21899;SDS011;11114;50.658;12.704;2023-05-21T05:34:35;23.65;;;21.35;;
21899;SDS011;11114;50.658;12.704;2023-05-21T05:37:23;24.02;;;21.65;;
21899;SDS011;11114;50.658;12.704;2023-05-21T05:40:10;25.92;;;22.20;;
21899;SDS011;11114;50.658;12.704;2023-05-21T05:42:56;23.75;;;21.52;;
21899;SDS011;11114;50.658;12.704;2023-05-21T05:45:43;24.05;;;21.67;;
21899;SDS011;11114;50.658;12.704;2023-05-21T05:48:32;23.33;;;21.00;;
21899;SDS011;11114;50.658;12.704;2023-05-21T05:51:19;25.33;;;22.70;;
21899;SDS011;11114;50.658;12.704;2023-05-21T05:54:05;23.40;;;21.33;;
21899;SDS011;11114;50.658;12.704;2023-05-21T05:56:54;24.70;;;22.30;;
21899;SDS011;11114;50.658;12.704;2023-05-21T05:59:40;25.13;;;22.70;;
21899;SDS011;11114;50.658;12.704;2023-05-21T06:02:29;25.75;;;23.02;;
21899;SDS011;11114;50.658;12.704;2023-05-21T06:05:17;23.25;;;20.85;;
21899;SDS011;11114;50.658;12.704;2023-05-21T06:08:03;22.98;;;20.85;;
21899;SDS011;11114;50.658;12.704;2023-05-21T06:10:50;23.40;;;21.13;;
21899;SDS011;11114;50.658;12.704;2023-05-21T06:13:38;23.05;;;20.85;;
21899;SDS011;11114;50.658;12.704;2023-05-21T06:16:28;24.55;;;21.98;;
21899;SDS011;11114;50.658;12.704;2023-05-21T06:19:17;23.60;;;21.50;;
21899;SDS011;11114;50.658;12.704;2023-05-21T06:22:04;24.13;;;22.00;;
21899;SDS011;11114;50.658;12.704;2023-05-21T06:24:50;23.80;;;21.45;;
21899;SDS011;11114;50.658;12.704;2023-05-21T06:27:39;23.67;;;21.38;;
21899;SDS011;11114;50.658;12.704;2023-05-21T06:30:33;23.27;;;20.92;;
21899;SDS011;11114;50.658;12.704;2023-05-21T06:33:20;22.20;;;20.20;;
21899;SDS011;11114;50.658;12.704;2023-05-21T06:36:10;22.23;;;20.13;;
21899;SDS011;11114;50.658;12.704;2023-05-21T06:38:58;21.58;;;19.60;;
21899;SDS011;11114;50.658;12.704;2023-05-21T06:41:44;21.45;;;19.20;;
21899;SDS011;11114;50.658;12.704;2023-05-21T06:44:49;22.40;;;20.35;;
21899;SDS011;11114;50.658;12.704;2023-05-21T06:47:44;20.95;;;19.13;;
21899;SDS011;11114;50.658;12.704;2023-05-21T06:50:31;21.40;;;19.50;;
21899;SDS011;11114;50.658;12.704;2023-05-21T06:53:19;20.35;;;18.52;;
21899;SDS011;11114;50.658;12.704;2023-05-21T06:56:06;20.70;;;18.80;;
21899;SDS011;11114;50.658;12.704;2023-05-21T06:58:56;21.92;;;20.02;;
21899;SDS011;11114;50.658;12.704;2023-05-21T07:01:42;20.02;;;17.95;;
21899;SDS011;11114;50.658;12.704;2023-05-21T07:04:30;19.73;;;18.02;;
21899;SDS011;11114;50.658;12.704;2023-05-21T07:07:17;19.27;;;17.20;;
21899;SDS011;11114;50.658;12.704;2023-05-21T07:10:05;18.23;;;16.65;;
21899;SDS011;11114;50.658;12.704;2023-05-21T07:12:53;18.30;;;16.60;;
21899;SDS011;11114;50.658;12.704;2023-05-21T07:15:39;18.15;;;16.40;;
21899;SDS011;11114;50.658;12.704;2023-05-21T07:18:26;17.60;;;15.77;;
21899;SDS011;11114;50.658;12.704;2023-05-21T07:21:12;17.27;;;15.77;;
21899;SDS011;11114;50.658;12.704;2023-05-21T07:23:59;21.55;;;15.63;;
21899;SDS011;11114;50.658;12.704;2023-05-21T07:26:45;17.17;;;15.45;;
21899;SDS011;11114;50.658;12.704;2023-05-21T07:29:34;16.27;;;14.88;;
21899;SDS011;11114;50.658;12.704;2023-05-21T07:32:21;17.02;;;15.45;;
21899;SDS011;11114;50.658;12.704;2023-05-21T07:35:08;17.65;;;16.02;;
21899;SDS011;11114;50.658;12.704;2023-05-21T07:37:55;16.88;;;15.52;;
21899;SDS011;11114;50.658;12.704;2023-05-21T07:40:41;17.33;;;15.73;;
21899;SDS011;11114;50.658;12.704;2023-05-21T07:43:28;17.52;;;15.93;;
21899;SDS011;11114;50.658;12.704;2023-05-21T07:46:14;18.85;;;16.85;;
21899;SDS011;11114;50.658;12.704;2023-05-21T07:49:03;17.38;;;15.82;;
21899;SDS011;11114;50.658;12.704;2023-05-21T07:51:50;18.25;;;16.55;;
21899;SDS011;11114;50.658;12.704;2023-05-21T07:54:37;18.55;;;14.50;;
21899;SDS011;11114;50.658;12.704;2023-05-21T07:57:25;15.93;;;14.52;;
21899;SDS011;11114;50.658;12.704;2023-05-21T08:00:21;16.13;;;14.60;;
21899;SDS011;11114;50.658;12.704;2023-05-21T08:03:13;17.13;;;15.65;;
21899;SDS011;11114;50.658;12.704;2023-05-21T08:06:01;16.67;;;15.32;;
21899;SDS011;11114;50.658;12.704;2023-05-21T08:08:47;16.50;;;15.13;;
21899;SDS011;11114;50.658;12.704;2023-05-21T08:11:34;17.88;;;16.27;;
21899;SDS011;11114;50.658;12.704;2023-05-21T08:14:21;16.95;;;15.48;;
21899;SDS011;11114;50.658;12.704;2023-05-21T08:17:08;16.33;;;14.95;;
21899;SDS011;11114;50.658;12.704;2023-05-21T08:19:57;15.93;;;14.60;;
21899;SDS011;11114;50.658;12.704;2023-05-21T08:22:45;17.38;;;15.60;;
21899;SDS011;11114;50.658;12.704;2023-05-21T08:25:34;17.70;;;15.90;;
21899;SDS011;11114;50.658;12.704;2023-05-21T08:28:22;16.58;;;15.15;;
21899;SDS011;11114;50.658;12.704;2023-05-21T08:31:09;19.20;;;17.38;;
21899;SDS011;11114;50.658;12.704;2023-05-21T08:33:56;16.25;;;14.75;;
21899;SDS011;11114;50.658;12.704;2023-05-21T08:36:54;15.75;;;14.27;;
21899;SDS011;11114;50.658;12.704;2023-05-21T08:40:07;15.57;;;14.25;;
21899;SDS011;11114;50.658;12.704;2023-05-21T08:42:57;15.98;;;14.68;;
21899;SDS011;11114;50.658;12.704;2023-05-21T08:45:59;15.95;;;14.43;;
21899;SDS011;11114;50.658;12.704;2023-05-21T08:48:51;16.50;;;15.10;;
21899;SDS011;11114;50.658;12.704;2023-05-21T08:51:43;17.23;;;15.35;;
21899;SDS011;11114;50.658;12.704;2023-05-21T08:54:34;16.20;;;14.50;;
21899;SDS011;11114;50.658;12.704;2023-05-21T08:57:21;15.73;;;14.32;;
21899;SDS011;11114;50.658;12.704;2023-05-21T09:00:11;16.33;;;14.93;;
21899;SDS011;11114;50.658;12.704;2023-05-21T09:02:58;16.15;;;14.80;;
21899;SDS011;11114;50.658;12.704;2023-05-21T09:05:47;15.27;;;13.88;;
21899;SDS011;11114;50.658;12.704;2023-05-21T09:08:37;17.48;;;14.52;;
21899;SDS011;11114;50.658;12.704;2023-05-21T09:11:58;16.80;;;15.07;;
21899;SDS011;11114;50.658;12.704;2023-05-21T09:14:46;15.80;;;14.23;;
21899;SDS011;11114;50.658;12.704;2023-05-21T09:17:39;15.57;;;13.95;;
21899;SDS011;11114;50.658;12.704;2023-05-21T09:20:51;15.18;;;13.80;;
21899;SDS011;11114;50.658;12.704;2023-05-21T09:23:39;15.90;;;14.20;;
21899;SDS011;11114;50.658;12.704;2023-05-21T09:26:25;16.40;;;14.70;;
21899;SDS011;11114;50.658;12.704;2023-05-21T09:32:06;15.32;;;14.02;;
21899;SDS011;11114;50.658;12.704;2023-05-21T09:34:56;19.50;;;14.80;;
21899;SDS011;11114;50.658;12.704;2023-05-21T09:37:54;16.15;;;14.60;;
21899;SDS011;11114;50.658;12.704;2023-05-21T09:40:42;14.80;;;13.55;;
21899;SDS011;11114;50.658;12.704;2023-05-21T09:43:32;15.63;;;14.13;;
21899;SDS011;11114;50.658;12.704;2023-05-21T09:46:20;15.35;;;14.00;;
21899;SDS011;11114;50.658;12.704;2023-05-21T09:49:22;14.80;;;13.48;;
21899;SDS011;11114;50.658;12.704;2023-05-21T09:52:12;14.95;;;13.55;;
21899;SDS011;11114;50.658;12.704;2023-05-21T09:54:58;15.00;;;13.75;;
21899;SDS011;11114;50.658;12.704;2023-05-21T09:57:45;14.43;;;13.00;;
21899;SDS011;11114;50.658;12.704;2023-05-21T10:00:35;13.98;;;12.70;;
21899;SDS011;11114;50.658;12.704;2023-05-21T10:03:22;13.80;;;12.60;;
21899;SDS011;11114;50.658;12.704;2023-05-21T10:06:13;13.70;;;11.90;;
21899;SDS011;11114;50.658;12.704;2023-05-21T10:09:02;14.23;;;12.85;;
21899;SDS011;11114;50.658;12.704;2023-05-21T10:11:52;14.05;;;12.38;;
21899;SDS011;11114;50.658;12.704;2023-05-21T10:14:40;13.73;;;12.52;;
21899;SDS011;11114;50.658;12.704;2023-05-21T10:17:31;13.95;;;12.80;;
21899;SDS011;11114;50.658;12.704;2023-05-21T10:20:18;13.07;;;11.98;;
21899;SDS011;11114;50.658;12.704;2023-05-21T10:23:09;12.90;;;11.70;;
21899;SDS011;11114;50.658;12.704;2023-05-21T10:25:55;12.85;;;11.75;;
21899;SDS011;11114;50.658;12.704;2023-05-21T10:28:43;14.02;;;12.55;;
21899;SDS011;11114;50.658;12.704;2023-05-21T10:31:31;13.93;;;12.63;;
21899;SDS011;11114;50.658;12.704;2023-05-21T10:34:18;14.18;;;12.73;;
21899;SDS011;11114;50.658;12.704;2023-05-21T10:37:06;13.98;;;12.52;;
21899;SDS011;11114;50.658;12.704;2023-05-21T10:39:54;14.07;;;12.50;;
21899;SDS011;11114;50.658;12.704;2023-05-21T10:42:45;12.93;;;11.82;;
21899;SDS011;11114;50.658;12.704;2023-05-21T10:52:18;12.80;;;11.80;;
21899;SDS011;11114;50.658;12.704;2023-05-21T10:55:37;12.82;;;11.73;;
21899;SDS011;11114;50.658;12.704;2023-05-21T11:01:35;13.02;;;11.80;;
21899;SDS011;11114;50.658;12.704;2023-05-21T11:04:26;13.30;;;12.05;;
21899;SDS011;11114;50.658;12.704;2023-05-21T11:07:13;12.85;;;11.60;;
21899;SDS011;11114;50.658;12.704;2023-05-21T11:10:28;12.65;;;11.45;;
21899;SDS011;11114;50.658;12.704;2023-05-21T11:13:18;13.48;;;12.23;;
21899;SDS011;11114;50.658;12.704;2023-05-21T11:16:12;13.30;;;12.15;;
21899;SDS011;11114;50.658;12.704;2023-05-21T11:19:00;13.48;;;12.15;;
21899;SDS011;11114;50.658;12.704;2023-05-21T11:21:49;12.30;;;11.32;;
21899;SDS011;11114;50.658;12.704;2023-05-21T11:24:39;13.05;;;11.77;;
21899;SDS011;11114;50.658;12.704;2023-05-21T11:30:23;13.00;;;11.80;;
21899;SDS011;11114;50.658;12.704;2023-05-21T11:36:01;13.10;;;12.00;;
21899;SDS011;11114;50.658;12.704;2023-05-21T11:39:10;13.38;;;12.10;;
21899;SDS011;11114;50.658;12.704;2023-05-21T11:41:59;13.15;;;11.82;;
21899;SDS011;11114;50.658;12.704;2023-05-21T11:44:50;15.10;;;12.02;;
21899;SDS011;11114;50.658;12.704;2023-05-21T11:47:38;14.18;;;11.80;;
21899;SDS011;11114;50.658;12.704;2023-05-21T11:50:25;13.43;;;12.02;;
21899;SDS011;11114;50.658;12.704;2023-05-21T11:53:15;12.88;;;11.80;;
21899;SDS011;11114;50.658;12.704;2023-05-21T11:56:02;12.50;;;11.40;;
21899;SDS011;11114;50.658;12.704;2023-05-21T11:58:52;12.68;;;11.68;;
21899;SDS011;11114;50.658;12.704;2023-05-21T12:01:41;15.07;;;12.68;;
21899;SDS011;11114;50.658;12.704;2023-05-21T12:04:29;13.38;;;12.07;;
21899;SDS011;11114;50.658;12.704;2023-05-21T12:07:22;13.93;;;12.50;;
21899;SDS011;11114;50.658;12.704;2023-05-21T12:10:09;13.38;;;12.27;;
21899;SDS011;11114;50.658;12.704;2023-05-21T12:12:56;13.23;;;12.13;;
21899;SDS011;11114;50.658;12.704;2023-05-21T12:15:43;14.57;;;12.38;;
21899;SDS011;11114;50.658;12.704;2023-05-21T12:18:33;12.80;;;11.70;;
21899;SDS011;11114;50.658;12.704;2023-05-21T12:21:26;13.63;;;12.48;;
21899;SDS011;11114;50.658;12.704;2023-05-21T12:24:14;13.30;;;12.20;;
21899;SDS011;11114;50.658;12.704;2023-05-21T12:27:02;13.30;;;12.20;;
21899;SDS011;11114;50.658;12.704;2023-05-21T12:29:54;14.27;;;12.88;;
21899;SDS011;11114;50.658;12.704;2023-05-21T12:32:42;13.68;;;12.52;;
21899;SDS011;11114;50.658;12.704;2023-05-21T12:35:30;14.85;;;12.88;;
21899;SDS011;11114;50.658;12.704;2023-05-21T12:38:18;12.48;;;11.38;;
21899;SDS011;11114;50.658;12.704;2023-05-21T12:41:04;13.82;;;12.70;;
21899;SDS011;11114;50.658;12.704;2023-05-21T12:43:52;16.67;;;12.02;;
21899;SDS011;11114;50.658;12.704;2023-05-21T12:46:38;13.82;;;12.73;;
21899;SDS011;11114;50.658;12.704;2023-05-21T12:49:41;16.77;;;12.53;;
21899;SDS011;11114;50.658;12.704;2023-05-21T12:52:29;13.35;;;12.15;;
21899;SDS011;11114;50.658;12.704;2023-05-21T12:55:16;14.60;;;12.88;;
21899;SDS011;11114;50.658;12.704;2023-05-21T12:58:03;13.90;;;12.52;;
21899;SDS011;11114;50.658;12.704;2023-05-21T13:00:53;13.95;;;12.70;;
21899;SDS011;11114;50.658;12.704;2023-05-21T13:03:41;15.05;;;13.40;;
21899;SDS011;11114;50.658;12.704;2023-05-21T13:06:27;13.43;;;12.23;;
21899;SDS011;11114;50.658;12.704;2023-05-21T13:09:14;13.57;;;12.23;;
21899;SDS011;11114;50.658;12.704;2023-05-21T13:12:00;13.77;;;12.48;;
21899;SDS011;11114;50.658;12.704;2023-05-21T13:14:50;14.73;;;12.55;;
21899;SDS011;11114;50.658;12.704;2023-05-21T13:17:39;13.23;;;12.13;;
21899;SDS011;11114;50.658;12.704;2023-05-21T13:20:26;14.02;;;12.73;;
21899;SDS011;11114;50.658;12.704;2023-05-21T13:23:13;13.55;;;12.35;;
21899;SDS011;11114;50.658;12.704;2023-05-21T13:26:04;13.48;;;12.35;;
21899;SDS011;11114;50.658;12.704;2023-05-21T13:28:52;12.98;;;11.68;;
21899;SDS011;11114;50.658;12.704;2023-05-21T13:31:37;12.95;;;11.65;;
21899;SDS011;11114;50.658;12.704;2023-05-21T13:34:24;13.77;;;12.43;;
21899;SDS011;11114;50.658;12.704;2023-05-21T13:37:10;13.52;;;11.90;;
21899;SDS011;11114;50.658;12.704;2023-05-21T13:39:57;13.95;;;12.65;;
21899;SDS011;11114;50.658;12.704;2023-05-21T13:42:44;12.75;;;11.75;;
21899;SDS011;11114;50.658;12.704;2023-05-21T13:45:32;13.13;;;11.35;;
21899;SDS011;11114;50.658;12.704;2023-05-21T13:48:18;12.38;;;11.27;;
21899;SDS011;11114;50.658;12.704;2023-05-21T13:51:05;13.35;;;12.18;;
21899;SDS011;11114;50.658;12.704;2023-05-21T13:53:51;13.50;;;12.25;;
21899;SDS011;11114;50.658;12.704;2023-05-21T13:56:40;12.55;;;11.35;;
21899;SDS011;11114;50.658;12.704;2023-05-21T13:59:30;12.75;;;11.55;;
21899;SDS011;11114;50.658;12.704;2023-05-21T14:02:18;14.32;;;12.52;;
21899;SDS011;11114;50.658;12.704;2023-05-21T14:05:05;14.85;;;13.23;;
21899;SDS011;11114;50.658;12.704;2023-05-21T14:07:52;13.60;;;12.43;;
21899;SDS011;11114;50.658;12.704;2023-05-21T14:10:39;12.95;;;11.75;;
21899;SDS011;11114;50.658;12.704;2023-05-21T14:13:25;13.70;;;12.32;;
21899;SDS011;11114;50.658;12.704;2023-05-21T14:16:12;13.02;;;11.80;;
21899;SDS011;11114;50.658;12.704;2023-05-21T14:18:59;12.43;;;11.23;;
21899;SDS011;11114;50.658;12.704;2023-05-21T14:21:50;11.05;;;9.85;;
21899;SDS011;11114;50.658;12.704;2023-05-21T14:24:37;11.85;;;10.73;;
21899;SDS011;11114;50.658;12.704;2023-05-21T14:27:23;11.48;;;10.32;;
21899;SDS011;11114;50.658;12.704;2023-05-21T14:30:11;12.40;;;11.07;;
21899;SDS011;11114;50.658;12.704;2023-05-21T14:32:58;11.50;;;10.50;;
21899;SDS011;11114;50.658;12.704;2023-05-21T14:35:48;11.15;;;10.18;;
21899;SDS011;11114;50.658;12.704;2023-05-21T14:38:34;11.02;;;10.02;;
21899;SDS011;11114;50.658;12.704;2023-05-21T14:41:24;16.00;;;10.98;;
21899;SDS011;11114;50.658;12.704;2023-05-21T14:44:14;11.38;;;10.38;;
21899;SDS011;11114;50.658;12.704;2023-05-21T14:47:00;10.80;;;9.70;;
21899;SDS011;11114;50.658;12.704;2023-05-21T14:49:56;11.50;;;10.50;;
21899;SDS011;11114;50.658;12.704;2023-05-21T14:52:51;12.68;;;10.70;;
21899;SDS011;11114;50.658;12.704;2023-05-21T14:55:37;12.60;;;11.40;;
21899;SDS011;11114;50.658;12.704;2023-05-21T14:58:24;11.85;;;10.77;;
21899;SDS011;11114;50.658;12.704;2023-05-21T15:01:13;11.43;;;10.43;;
21899;SDS011;11114;50.658;12.704;2023-05-21T15:03:59;11.23;;;10.18;;
21899;SDS011;11114;50.658;12.704;2023-05-21T15:06:47;13.55;;;10.63;;
21899;SDS011;11114;50.658;12.704;2023-05-21T15:09:33;11.68;;;10.57;;
21899;SDS011;11114;50.658;12.704;2023-05-21T15:12:19;10.85;;;9.85;;
21899;SDS011;11114;50.658;12.704;2023-05-21T15:15:06;14.65;;;10.95;;
21899;SDS011;11114;50.658;12.704;2023-05-21T15:17:53;12.98;;;10.82;;
21899;SDS011;11114;50.658;12.704;2023-05-21T15:20:40;18.80;;;11.13;;
21899;SDS011;11114;50.658;12.704;2023-05-21T15:23:26;16.52;;;10.57;;
21899;SDS011;11114;50.658;12.704;2023-05-21T15:26:15;11.85;;;10.85;;
21899;SDS011;11114;50.658;12.704;2023-05-21T15:29:01;12.40;;;11.20;;
21899;SDS011;11114;50.658;12.704;2023-05-21T15:31:49;11.60;;;10.50;;
21899;SDS011;11114;50.658;12.704;2023-05-21T15:34:35;12.07;;;10.98;;
21899;SDS011;11114;50.658;12.704;2023-05-21T15:37:24;14.18;;;11.73;;
21899;SDS011;11114;50.658;12.704;2023-05-21T15:40:11;13.23;;;11.43;;
21899;SDS011;11114;50.658;12.704;2023-05-21T15:42:58;11.70;;;10.70;;
21899;SDS011;11114;50.658;12.704;2023-05-21T15:45:45;11.85;;;10.70;;
21899;SDS011;11114;50.658;12.704;2023-05-21T15:48:32;11.23;;;10.32;;
21899;SDS011;11114;50.658;12.704;2023-05-21T15:51:19;17.33;;;11.23;;
21899;SDS011;11114;50.658;12.704;2023-05-21T15:54:06;11.93;;;10.75;;
21899;SDS011;11114;50.658;12.704;2023-05-21T15:56:53;12.68;;;11.45;;
21899;SDS011;11114;50.658;12.704;2023-05-21T15:59:39;12.85;;;11.65;;
21899;SDS011;11114;50.658;12.704;2023-05-21T16:02:25;12.40;;;11.20;;
21899;SDS011;11114;50.658;12.704;2023-05-21T16:05:12;14.07;;;11.50;;
21899;SDS011;11114;50.658;12.704;2023-05-21T16:08:00;12.50;;;11.40;;
21899;SDS011;11114;50.658;12.704;2023-05-21T16:10:47;13.10;;;11.90;;
21899;SDS011;11114;50.658;12.704;2023-05-21T16:13:34;12.98;;;11.80;;
21899;SDS011;11114;50.658;12.704;2023-05-21T16:16:21;13.55;;;12.18;;
21899;SDS011;11114;50.658;12.704;2023-05-21T16:19:10;14.25;;;12.48;;
21899;SDS011;11114;50.658;12.704;2023-05-21T16:21:56;13.68;;;12.27;;
21899;SDS011;11114;50.658;12.704;2023-05-21T16:24:42;12.63;;;11.43;;
21899;SDS011;11114;50.658;12.704;2023-05-21T16:27:29;13.52;;;12.32;;
21899;SDS011;11114;50.658;12.704;2023-05-21T16:30:16;13.02;;;11.98;;
21899;SDS011;11114;50.658;12.704;2023-05-21T16:33:03;13.23;;;11.95;;